Time;durP1;ratioP1;P1;durP2;ratioP2;P2;SDS_P1;SDS_P2;PMS_P1;PMS_P2;Temp;Humidity;BMP_temperature;BMP_pressure;BME280_temperature;BME280_humidity;BME280_pressure;Samples;Min_cycle;Max_cycle;Signal;HPM_P1;HPM_P2
2021/03/05 00:01:26;;;;;;;23.73;11.38;;;6.90;90.40;;;;;;5012697;28;20053;-77
2021/03/05 00:03:53;;;;;;;29.67;12.52;;;6.90;90.50;;;;;;5009055;28;20149;-74
2021/03/05 00:06:19;;;;;;;28.20;12.35;;;7.00;91.00;;;;;;5014772;28;20057;-76
2021/03/05 00:08:46;;;;;;;23.73;11.80;;;7.10;90.80;;;;;;5009033;28;20137;-76
2021/03/05 00:11:12;;;;;;;25.52;11.90;;;6.80;90.90;;;;;;5011413;28;20062;-75
2021/03/05 00:13:38;;;;;;;22.88;11.90;;;6.90;90.80;;;;;;5011680;28;20054;-76
2021/03/05 00:16:05;;;;;;;27.02;11.75;;;6.90;90.20;;;;;;5018145;28;20076;-75
2021/03/05 00:18:35;;;;;;;;;;;6.90;90.40;;;;;;5012718;28;20091;-75
2021/03/05 00:21:02;;;;;;;26.05;12.30;;;7.00;90.40;;;;;;5010323;28;19922;-75
2021/03/05 00:23:28;;;;;;;21.02;11.18;;;6.90;90.30;;;;;;5012317;28;20084;-76
2021/03/05 00:25:55;;;;;;;23.70;11.80;;;7.00;90.40;;;;;;5009939;28;20049;-76
2021/03/05 00:28:22;;;;;;;25.23;13.18;;;6.90;90.60;;;;;;5007295;28;20485;-76
2021/03/05 00:30:53;;;;;;;22.73;11.02;;;6.90;90.60;;;;;;5013690;28;20068;-76
2021/03/05 00:33:19;;;;;;;20.80;10.45;;;6.70;91.10;;;;;;5011865;28;20092;-77
2021/03/05 00:35:56;;;;;;;26.30;13.10;;;6.80;91.80;;;;;;5017154;28;20393;-76
2021/03/05 00:38:23;;;;;;;18.58;10.18;;;6.80;92.00;;;;;;5012410;28;20140;-75
2021/03/05 00:40:50;;;;;;;17.80;9.48;;;6.70;91.70;;;;;;5010586;28;20065;-76
2021/03/05 00:43:18;;;;;;;12.50;7.68;;;6.70;91.90;;;;;;5019296;28;20057;-75
2021/03/05 00:45:44;;;;;;;14.45;8.23;;;6.80;91.40;;;;;;5009734;28;20050;-76
2021/03/05 00:48:12;;;;;;;12.52;6.68;;;6.80;91.30;;;;;;5013063;28;20041;-75
2021/03/05 00:50:38;;;;;;;20.25;10.30;;;6.70;91.80;;;;;;5010069;28;20077;-76
2021/03/05 00:53:05;;;;;;;13.77;7.97;;;6.70;92.20;;;;;;5003258;28;20071;-76
2021/03/05 00:55:32;;;;;;;12.27;7.35;;;6.40;92.30;;;;;;5007847;28;20046;-76
2021/03/05 00:57:59;;;;;;;13.00;7.22;;;6.60;91.50;;;;;;5010345;28;20141;-75
2021/03/05 01:00:26;;;;;;;11.40;7.07;;;6.60;92.00;;;;;;5015933;28;20054;-75
2021/03/05 01:02:52;;;;;;;11.88;7.00;;;6.50;92.10;;;;;;5027847;28;20065;-75
2021/03/05 01:05:19;;;;;;;12.60;7.22;;;6.60;92.70;;;;;;5043757;28;21209;-76
2021/03/05 01:07:45;;;;;;;10.85;6.90;;;6.80;91.90;;;;;;5017723;28;20516;-76
2021/03/05 01:10:12;;;;;;;11.48;6.93;;;6.70;91.60;;;;;;5016061;28;20100;-75
2021/03/05 01:12:38;;;;;;;11.55;6.55;;;6.50;92.10;;;;;;5020979;28;20137;-75
2021/03/05 01:15:07;;;;;;;13.30;7.68;;;6.50;91.90;;;;;;5021735;28;20050;-75
2021/03/05 01:17:33;;;;;;;10.50;6.82;;;6.50;91.80;;;;;;5011577;28;20141;-75
2021/03/05 01:20:00;;;;;;;10.18;6.45;;;6.40;92.10;;;;;;5012271;28;20057;-76
2021/03/05 01:22:27;;;;;;;11.55;7.20;;;6.60;92.60;;;;;;5016778;28;20053;-75
2021/03/05 01:24:55;;;;;;;11.95;7.13;;;6.50;92.30;;;;;;5014255;28;20057;-78
2021/03/05 01:27:21;;;;;;;11.75;7.25;;;6.50;92.10;;;;;;5028951;28;20473;-76
2021/03/05 01:29:47;;;;;;;11.02;7.00;;;6.40;92.80;;;;;;5014602;28;20157;-76
2021/03/05 01:32:14;;;;;;;16.08;8.07;;;6.50;91.90;;;;;;5021970;28;20103;-76
2021/03/05 01:34:40;;;;;;;11.57;7.32;;;6.70;91.90;;;;;;5020414;28;20123;-75
2021/03/05 01:37:06;;;;;;;12.02;7.30;;;6.50;90.70;;;;;;5022185;28;20057;-76
2021/03/05 01:39:33;;;;;;;13.70;7.90;;;6.50;91.00;;;;;;5013285;28;21188;-76
2021/03/05 01:41:59;;;;;;;11.90;7.50;;;6.50;91.30;;;;;;5021826;28;20124;-76
2021/03/05 01:44:26;;;;;;;12.55;6.78;;;6.50;90.80;;;;;;5012823;28;20568;-75
2021/03/05 01:46:52;;;;;;;11.27;6.43;;;6.50;91.10;;;;;;5020112;28;20073;-76
2021/03/05 01:49:19;;;;;;;13.57;7.32;;;6.60;90.80;;;;;;5045583;28;20473;-75
2021/03/05 01:51:45;;;;;;;12.07;6.80;;;6.70;90.70;;;;;;5012996;28;20092;-75
2021/03/05 01:54:12;;;;;;;13.35;7.80;;;6.50;90.50;;;;;;5015337;28;20042;-75
2021/03/05 01:56:43;;;;;;;12.65;7.50;;;6.40;91.40;;;;;;5013167;28;20061;-75
2021/03/05 01:59:11;;;;;;;12.95;7.20;;;6.70;91.70;;;;;;5013510;28;20107;-75
2021/03/05 02:01:38;;;;;;;10.55;6.88;;;6.60;91.30;;;;;;5020496;28;20112;-76
2021/03/05 02:04:10;;;;;;;12.32;7.43;;;6.60;91.00;;;;;;5044153;28;20443;-75
2021/03/05 02:06:56;;;;;;;12.85;7.10;;;6.40;90.80;;;;;;5013022;28;20061;-76
2021/03/05 02:09:23;;;;;;;12.77;7.50;;;6.40;91.00;;;;;;5028690;28;20054;-75
2021/03/05 02:11:50;;;;;;;13.48;6.90;;;6.40;91.40;;;;;;5018524;28;20041;-76
2021/03/05 02:14:16;;;;;;;13.13;7.78;;;6.60;91.20;;;;;;5030373;28;20104;-75
2021/03/05 02:17:02;;;;;;;13.00;7.43;;;6.60;90.80;;;;;;5020754;28;20054;-76
2021/03/05 02:19:51;;;;;;;14.18;8.32;;;6.60;90.80;;;;;;5014356;28;20046;-76
2021/03/05 02:22:54;;;;;;;16.77;8.35;;;6.70;90.50;;;;;;5014448;28;20062;-76
2021/03/05 02:25:45;;;;;;;13.70;8.23;;;6.70;90.10;;;;;;5014306;28;20104;-76
2021/03/05 02:28:31;;;;;;;13.73;7.95;;;6.60;91.10;;;;;;5014098;28;20399;-76
2021/03/05 02:31:18;;;;;;;15.48;8.50;;;6.60;91.10;;;;;;5019124;28;20046;-77
2021/03/05 02:33:50;;;;;;;14.10;8.48;;;6.40;90.90;;;;;;5028574;28;20080;-76
2021/03/05 02:36:22;;;;;;;17.38;8.38;;;6.30;91.80;;;;;;5011972;28;20080;-76
2021/03/05 02:39:14;;;;;;;14.77;8.32;;;6.40;91.50;;;;;;5030136;28;20118;-75
2021/03/05 02:41:42;;;;;;;14.65;8.52;;;6.40;91.30;;;;;;5010334;28;20111;-76
2021/03/05 02:44:18;;;;;;;13.70;8.07;;;6.30;91.30;;;;;;5013388;28;20050;-76
2021/03/05 02:46:44;;;;;;;17.30;8.50;;;6.40;91.70;;;;;;5011093;28;20103;-76
2021/03/05 02:49:16;;;;;;;16.35;8.30;;;6.50;91.00;;;;;;5014533;28;20041;-76
2021/03/05 02:51:45;;;;;;;14.55;7.88;;;6.60;90.50;;;;;;5028317;28;20061;-76
2021/03/05 02:54:13;;;;;;;14.32;8.07;;;6.60;90.70;;;;;;5011368;28;20457;-77
2021/03/05 02:56:40;;;;;;;12.98;7.25;;;6.60;90.70;;;;;;5008861;28;20123;-77
2021/03/05 02:59:08;;;;;;;15.45;8.15;;;6.60;90.80;;;;;;5011899;28;20096;-75
2021/03/05 03:01:36;;;;;;;14.55;8.43;;;6.60;91.10;;;;;;5011758;28;20057;-77
2021/03/05 03:04:04;;;;;;;16.58;8.52;;;6.60;90.80;;;;;;5014083;28;20068;-77
2021/03/05 03:06:33;;;;;;;15.48;9.05;;;6.50;91.40;;;;;;5012386;28;20053;-77
2021/03/05 03:09:03;;;;;;;16.13;8.50;;;6.60;91.10;;;;;;5015257;28;20037;-77
2021/03/05 03:11:38;;;;;;;18.08;8.35;;;6.70;90.70;;;;;;5010505;28;20081;-77
2021/03/05 03:14:04;;;;;;;13.85;7.95;;;6.70;90.90;;;;;;5008080;28;20118;-76
2021/03/05 03:16:32;;;;;;;16.75;8.63;;;6.60;91.00;;;;;;5018408;28;20111;-75
2021/03/05 03:18:59;;;;;;;16.60;8.65;;;6.60;91.20;;;;;;5013229;28;20041;-76
2021/03/05 03:21:27;;;;;;;16.05;8.45;;;6.50;90.90;;;;;;5011594;28;20046;-77
2021/03/05 03:23:54;;;;;;;14.57;8.23;;;6.60;90.60;;;;;;5012839;28;20335;-76
2021/03/05 03:26:22;;;;;;;14.85;8.43;;;6.80;90.00;;;;;;5010366;28;20425;-75
2021/03/05 03:28:50;;;;;;;14.85;8.90;;;6.80;90.20;;;;;;5018045;28;20053;-76
2021/03/05 03:31:17;;;;;;;14.15;8.38;;;6.80;90.00;;;;;;5014779;28;20077;-76
2021/03/05 03:33:45;;;;;;;16.05;8.73;;;6.70;90.10;;;;;;5030383;28;20077;-75
2021/03/05 03:36:13;;;;;;;17.23;9.25;;;6.50;90.20;;;;;;5019985;28;20425;-75
2021/03/05 03:38:40;;;;;;;15.63;8.52;;;6.50;91.10;;;;;;5018431;28;20104;-75
2021/03/05 03:41:06;;;;;;;17.58;9.35;;;6.60;91.00;;;;;;5024652;28;20077;-76
2021/03/05 03:43:33;;;;;;;15.70;8.55;;;6.50;90.70;;;;;;5025287;28;20053;-76
2021/03/05 03:45:59;;;;;;;17.60;9.88;;;6.40;91.30;;;;;;5056014;28;20104;-75
2021/03/05 03:48:27;;;;;;;17.40;8.90;;;6.40;91.70;;;;;;5023289;28;20057;-76
2021/03/05 03:51:02;;;;;;;15.52;9.20;;;6.40;91.50;;;;;;5019269;28;20037;-75
2021/03/05 03:53:32;;;;;;;17.15;8.93;;;6.50;91.60;;;;;;5021764;28;20046;-76
2021/03/05 03:56:01;;;;;;;16.08;8.95;;;6.50;91.20;;;;;;5021108;28;20069;-76
2021/03/05 03:58:30;;;;;;;18.23;8.65;;;6.60;91.60;;;;;;5026177;28;20649;-76
2021/03/05 04:01:24;;;;;;;16.17;8.90;;;6.50;91.50;;;;;;5052772;28;20084;-75
2021/03/05 04:03:53;;;;;;;19.00;9.50;;;6.60;91.40;;;;;;5020324;28;20412;-76
2021/03/05 04:06:25;;;;;;;16.52;9.18;;;6.60;90.90;;;;;;5025754;28;20049;-76
2021/03/05 04:08:53;;;;;;;19.85;9.68;;;6.50;91.10;;;;;;5050380;28;20050;-76
2021/03/05 04:11:21;;;;;;;19.10;9.48;;;6.60;91.00;;;;;;5023585;28;20122;-74
2021/03/05 04:13:48;;;;;;;18.85;9.68;;;6.60;91.00;;;;;;5018177;28;20046;-75
2021/03/05 04:16:14;;;;;;;18.73;9.73;;;6.50;91.20;;;;;;5018715;28;20077;-76
2021/03/05 04:18:41;;;;;;;20.05;9.80;;;6.60;91.20;;;;;;5022901;28;20152;-76
2021/03/05 04:21:18;;;;;;;17.83;9.82;;;6.50;91.00;;;;;;5026760;28;20478;-76
2021/03/05 04:23:45;;;;;;;19.60;9.82;;;6.70;91.10;;;;;;5022564;28;20092;-75
2021/03/05 04:26:11;;;;;;;21.40;10.27;;;6.70;90.90;;;;;;5053077;28;20084;-75
2021/03/05 04:28:37;;;;;;;19.10;10.00;;;6.70;90.70;;;;;;5018510;28;20124;-76
2021/03/05 04:31:04;;;;;;;20.67;9.88;;;6.70;90.30;;;;;;5024028;28;20531;-75
2021/03/05 04:33:30;;;;;;;20.00;10.15;;;6.70;90.50;;;;;;5021019;28;20069;-76
2021/03/05 04:35:57;;;;;;;19.48;10.68;;;6.70;90.70;;;;;;5023726;28;20041;-75
2021/03/05 04:38:23;;;;;;;20.27;10.20;;;6.70;90.80;;;;;;5020281;28;20088;-77
2021/03/05 04:40:50;;;;;;;21.00;11.02;;;6.70;91.00;;;;;;5017725;28;20053;-76
2021/03/05 04:43:17;;;;;;;21.58;10.98;;;6.70;90.50;;;;;;5011540;28;20096;-76
2021/03/05 04:45:43;;;;;;;24.60;11.88;;;6.70;90.60;;;;;;5024653;28;20111;-76
2021/03/05 04:48:10;;;;;;;25.33;10.93;;;7.00;90.60;;;;;;5012768;28;20042;-76
2021/03/05 04:50:37;;;;;;;23.45;10.68;;;6.60;90.30;;;;;;5024895;28;20092;-76
2021/03/05 04:53:04;;;;;;;20.83;10.68;;;6.70;90.90;;;;;;5020790;28;20127;-75
2021/03/05 04:55:32;;;;;;;25.20;12.50;;;6.70;91.60;;;;;;5020340;28;20116;-76
2021/03/05 04:57:58;;;;;;;24.60;11.52;;;6.60;91.10;;;;;;5020847;28;20133;-75
2021/03/05 05:00:25;;;;;;;22.30;10.82;;;6.50;91.20;;;;;;5020053;28;20065;-76
2021/03/05 05:02:51;;;;;;;24.38;11.73;;;6.70;91.20;;;;;;5023415;28;20069;-74
2021/03/05 05:05:18;;;;;;;29.77;11.68;;;6.70;91.20;;;;;;5056247;28;21029;-74
2021/03/05 05:07:45;;;;;;;23.38;11.65;;;6.60;91.40;;;;;;5022191;28;20054;-76
2021/03/05 05:10:13;;;;;;;22.02;11.23;;;6.60;91.30;;;;;;5027923;28;20092;-75
2021/03/05 05:12:39;;;;;;;20.23;10.88;;;6.50;92.00;;;;;;5018193;28;20049;-75
2021/03/05 05:15:07;;;;;;;23.80;11.68;;;6.50;91.20;;;;;;5030184;28;20532;-76
2021/03/05 05:17:34;;;;;;;24.10;11.15;;;6.60;91.10;;;;;;5023424;28;20469;-76
2021/03/05 05:20:01;;;;;;;24.95;12.30;;;6.50;91.20;;;;;;5025512;28;20381;-77
2021/03/05 05:22:27;;;;;;;21.80;11.02;;;6.40;92.10;;;;;;5015510;28;20054;-75
2021/03/05 05:24:54;;;;;;;29.33;12.25;;;6.60;91.90;;;;;;5025149;28;20443;-76
2021/03/05 05:27:20;;;;;;;23.33;12.02;;;6.50;91.20;;;;;;5014225;28;20069;-75
2021/03/05 05:29:47;;;;;;;21.92;11.10;;;6.40;92.00;;;;;;5020875;28;20530;-75
2021/03/05 05:32:14;;;;;;;24.65;12.10;;;6.40;92.20;;;;;;5019368;28;20104;-75
2021/03/05 05:34:40;;;;;;;23.58;11.23;;;6.40;92.10;;;;;;5017489;28;20077;-75
2021/03/05 05:37:07;;;;;;;24.25;11.55;;;6.50;91.80;;;;;;5024493;28;20054;-76
2021/03/05 05:39:39;;;;;;;26.45;12.30;;;6.40;92.10;;;;;;5026183;28;20053;-75
2021/03/05 05:42:07;;;;;;;25.92;12.18;;;6.40;91.80;;;;;;5025234;28;20103;-75
2021/03/05 05:44:34;;;;;;;23.48;11.90;;;6.50;91.20;;;;;;5022765;28;20131;-74
2021/03/05 05:47:01;;;;;;;26.10;11.23;;;6.40;90.40;;;;;;5016373;28;20112;-75
2021/03/05 05:49:29;;;;;;;23.67;11.55;;;6.40;90.00;;;;;;5017331;28;20052;-75
2021/03/05 05:52:03;;;;;;;22.85;10.77;;;6.40;90.30;;;;;;5023393;28;20076;-76
2021/03/05 05:54:31;;;;;;;21.55;10.68;;;6.50;89.60;;;;;;5015434;28;20046;-75
2021/03/05 05:56:59;;;;;;;21.42;10.80;;;6.40;89.80;;;;;;5019572;28;20096;-76
2021/03/05 05:59:26;;;;;;;21.42;9.25;;;6.60;88.30;;;;;;5025059;28;20063;-75
2021/03/05 06:01:53;;;;;;;21.80;8.90;;;6.60;86.50;;;;;;5025832;28;20058;-76
2021/03/05 06:04:20;;;;;;;19.88;8.82;;;6.40;86.80;;;;;;5023912;28;20045;-75
2021/03/05 06:06:47;;;;;;;15.18;7.50;;;6.40;84.80;;;;;;5025526;28;20172;-75
2021/03/05 06:09:14;;;;;;;17.65;7.72;;;6.50;83.00;;;;;;5023700;28;20111;-75
2021/03/05 06:11:41;;;;;;;17.60;7.53;;;6.50;82.00;;;;;;5023876;28;20104;-74
2021/03/05 06:14:13;;;;;;;13.82;6.82;;;6.40;82.00;;;;;;5023644;28;20435;-75
2021/03/05 06:16:53;;;;;;;13.95;6.85;;;6.50;81.60;;;;;;5030711;28;20049;-75
2021/03/05 06:19:20;;;;;;;;;;;6.60;80.80;;;;;;5059821;28;20053;-75
2021/03/05 06:21:47;;;;;;;10.75;5.88;;;6.60;80.50;;;;;;5020319;28;19964;-74
2021/03/05 06:24:14;;;;;;;12.23;6.47;;;6.50;80.10;;;;;;5018302;28;20805;-75
2021/03/05 06:27:01;;;;;;;15.55;6.25;;;6.60;79.90;;;;;;5025761;28;20052;-75
2021/03/05 06:29:38;;;;;;;13.63;6.55;;;6.60;79.30;;;;;;5038934;28;20050;-75
2021/03/05 06:32:07;;;;;;;13.52;6.68;;;6.60;79.80;;;;;;5021457;28;20060;-75
2021/03/05 06:34:57;;;;;;;11.13;5.82;;;6.80;79.50;;;;;;5028485;28;20052;-76
2021/03/05 06:37:26;;;;;;;12.30;6.30;;;6.60;77.80;;;;;;5022496;28;20042;-75
2021/03/05 06:40:06;;;;;;;14.45;6.65;;;6.40;77.80;;;;;;5025623;28;20049;-76
2021/03/05 06:42:57;;;;;;;17.25;6.90;;;6.50;78.30;;;;;;5027675;28;20069;-75
2021/03/05 06:45:25;;;;;;;14.07;6.85;;;6.50;79.40;;;;;;5026936;28;20554;-75
2021/03/05 06:48:09;;;;;;;16.95;6.40;;;6.50;78.70;;;;;;5052708;28;21113;-75
2021/03/05 06:50:38;;;;;;;15.38;7.25;;;6.50;78.40;;;;;;5019866;28;20064;-75
2021/03/05 06:53:25;;;;;;;10.55;6.03;;;6.50;79.60;;;;;;5019030;28;20061;-74
2021/03/05 06:55:52;;;;;;;18.65;7.00;;;6.40;78.90;;;;;;5015608;28;20041;-75
2021/03/05 06:58:20;;;;;;;16.10;5.90;;;6.40;78.50;;;;;;5024345;28;20104;-74
2021/03/05 07:00:46;;;;;;;16.60;6.30;;;6.50;78.60;;;;;;5021639;28;20104;-74
2021/03/05 07:03:22;;;;;;;14.60;6.65;;;6.40;76.90;;;;;;5027196;28;20127;-74
2021/03/05 07:05:55;;;;;;;17.65;6.88;;;6.50;78.20;;;;;;5023149;28;20054;-75
2021/03/05 07:08:41;;;;;;;14.50;6.50;;;6.30;78.50;;;;;;5023681;28;20069;-75
2021/03/05 07:11:13;;;;;;;12.55;6.40;;;6.40;79.40;;;;;;5032411;28;20398;-75
2021/03/05 07:13:52;;;;;;;14.70;6.55;;;6.50;79.10;;;;;;5025054;28;20517;-74
2021/03/05 07:16:19;;;;;;;13.48;6.93;;;6.60;78.80;;;;;;5051399;28;20042;-75
2021/03/05 07:18:46;;;;;;;13.27;6.32;;;6.50;78.00;;;;;;5015571;28;20081;-76
2021/03/05 07:21:17;;;;;;;11.82;6.28;;;6.50;77.80;;;;;;5020903;28;20111;-74
2021/03/05 07:23:45;;;;;;;18.08;7.25;;;6.50;77.30;;;;;;5023800;28;20519;-74
2021/03/05 07:26:12;;;;;;;22.83;6.30;;;6.60;77.80;;;;;;5018956;28;20123;-75
2021/03/05 07:28:44;;;;;;;18.25;6.60;;;6.60;78.20;;;;;;5023275;28;20045;-75
2021/03/05 07:31:19;;;;;;;14.52;5.70;;;6.50;77.90;;;;;;5017747;28;20069;-76
2021/03/05 07:33:50;;;;;;;12.50;6.22;;;6.60;78.10;;;;;;5022077;28;20046;-76
2021/03/05 07:36:18;;;;;;;14.35;6.38;;;6.60;78.10;;;;;;5054796;28;20077;-75
2021/03/05 07:38:50;;;;;;;13.35;6.13;;;6.40;78.60;;;;;;5020427;28;20050;-76
2021/03/05 07:41:20;;;;;;;12.35;5.97;;;6.40;79.10;;;;;;5026886;28;20103;-76
2021/03/05 07:43:47;;;;;;;12.73;6.25;;;6.60;78.80;;;;;;5024538;28;20061;-75
2021/03/05 07:46:14;;;;;;;13.40;6.32;;;6.60;78.60;;;;;;5016724;28;20072;-76
2021/03/05 07:48:41;;;;;;;16.02;6.03;;;6.50;79.50;;;;;;5023636;28;20061;-77
2021/03/05 07:51:09;;;;;;;13.00;5.82;;;6.40;78.40;;;;;;5051852;28;20054;-76
2021/03/05 07:53:52;;;;;;;14.27;6.70;;;6.40;78.50;;;;;;5016630;28;20073;-77
2021/03/05 07:56:38;;;;;;;15.80;5.90;;;6.50;78.90;;;;;;5026568;28;20107;-78
2021/03/05 07:59:04;;;;;;;18.30;6.40;;;6.50;79.00;;;;;;5015981;28;20049;-78
2021/03/05 08:02:06;;;;;;;18.30;5.85;;;6.50;79.10;;;;;;5023130;28;20062;-77
2021/03/05 08:04:48;;;;;;;18.25;6.25;;;6.50;78.70;;;;;;5008640;28;20053;-77
2021/03/05 08:07:25;;;;;;;19.58;6.60;;;6.50;79.50;;;;;;5019792;28;20571;-77
2021/03/05 08:09:52;;;;;;;11.68;6.10;;;6.50;79.50;;;;;;5021856;28;20083;-76
2021/03/05 08:12:37;;;;;;;16.75;6.45;;;6.40;79.70;;;;;;5020441;28;20080;-76
2021/03/05 08:15:06;;;;;;;23.63;6.28;;;6.40;79.10;;;;;;5020623;28;20100;-76
2021/03/05 08:17:38;;;;;;;19.48;6.80;;;6.30;79.70;;;;;;5017375;28;20432;-77
2021/03/05 08:20:18;;;;;;;17.55;6.32;;;6.60;79.30;;;;;;5036693;28;20046;-76
2021/03/05 08:23:03;;;;;;;19.63;6.35;;;6.70;79.00;;;;;;5019978;28;20061;-77
2021/03/05 08:25:33;;;;;;;15.02;6.38;;;6.80;78.20;;;;;;5019030;28;20351;-79
2021/03/05 08:28:02;;;;;;;15.55;7.00;;;6.60;79.40;;;;;;5021493;28;20537;-78
2021/03/05 08:30:35;;;;;;;16.48;6.60;;;6.50;79.30;;;;;;5019123;28;20037;-77
2021/03/05 08:33:24;;;;;;;17.38;6.75;;;6.40;79.70;;;;;;5048195;28;20408;-77
2021/03/05 08:35:51;;;;;;;15.63;6.32;;;6.40;79.20;;;;;;5026060;28;20064;-77
2021/03/05 08:38:21;;;;;;;14.25;7.00;;;6.40;79.40;;;;;;5020790;28;20448;-76
2021/03/05 08:40:50;;;;;;;18.48;6.55;;;6.50;79.90;;;;;;5022209;28;20058;-76
2021/03/05 08:43:18;;;;;;;16.90;6.50;;;6.50;79.70;;;;;;5021660;28;20067;-76
2021/03/05 08:46:07;;;;;;;19.75;6.80;;;6.80;79.20;;;;;;5015683;28;20099;-76
2021/03/05 08:48:40;;;;;;;19.00;7.07;;;7.10;78.00;;;;;;5022598;28;20529;-77
2021/03/05 08:51:17;;;;;;;18.92;6.63;;;7.00;77.70;;;;;;5055552;28;20045;-77
2021/03/05 08:53:44;;;;;;;17.75;7.38;;;7.10;77.80;;;;;;5020281;28;20068;-77
2021/03/05 08:56:15;;;;;;;17.58;7.65;;;7.10;76.50;;;;;;5019300;28;20042;-76
2021/03/05 08:58:43;;;;;;;17.23;7.22;;;7.20;77.00;;;;;;5020254;28;20049;-77
2021/03/05 09:01:26;;;;;;;16.05;6.95;;;7.40;75.60;;;;;;5019930;28;20066;-76
2021/03/05 09:03:53;;;;;;;19.00;7.45;;;7.50;74.70;;;;;;5054908;28;20180;-76
2021/03/05 09:06:20;;;;;;;21.48;8.18;;;7.50;75.40;;;;;;5018353;28;20057;-77
2021/03/05 09:08:46;;;;;;;15.10;6.97;;;7.40;76.40;;;;;;5053520;28;20053;-77
2021/03/05 09:11:14;;;;;;;18.17;8.50;;;7.40;75.80;;;;;;5050582;28;20045;-76
2021/03/05 09:13:41;;;;;;;21.95;7.38;;;7.40;77.10;;;;;;5040466;28;20081;-75
2021/03/05 09:16:08;;;;;;;19.27;7.70;;;7.40;75.70;;;;;;5024924;28;20091;-75
2021/03/05 09:18:38;;;;;;;20.77;7.60;;;7.50;74.70;;;;;;5025240;28;20053;-76
2021/03/05 09:21:09;;;;;;;17.58;8.10;;;7.50;76.10;;;;;;5022361;28;20053;-77
2021/03/05 09:23:37;;;;;;;20.63;8.32;;;7.40;75.40;;;;;;5015071;28;20046;-78
2021/03/05 09:26:09;;;;;;;14.52;7.00;;;7.50;76.40;;;;;;5019881;28;20507;-76
2021/03/05 09:28:38;;;;;;;15.18;7.30;;;7.50;75.60;;;;;;5015348;28;20050;-75
2021/03/05 09:31:05;;;;;;;18.60;7.43;;;7.20;76.90;;;;;;5032539;28;20061;-76
2021/03/05 09:33:37;;;;;;;21.20;7.00;;;7.60;77.40;;;;;;5035822;28;20110;-76
2021/03/05 09:36:18;;;;;;;17.13;7.25;;;7.50;75.80;;;;;;5038348;28;20056;-75
2021/03/05 09:38:46;;;;;;;17.77;7.85;;;7.50;75.20;;;;;;5037652;28;20485;-75
2021/03/05 09:41:27;;;;;;;17.67;7.82;;;8.00;76.00;;;;;;5035105;28;21341;-77
2021/03/05 09:43:58;;;;;;;14.05;7.10;;;7.80;74.80;;;;;;5036405;28;20797;-75
2021/03/05 09:46:27;;;;;;;20.77;7.75;;;7.80;76.70;;;;;;5038620;28;20060;-73
2021/03/05 09:48:55;;;;;;;17.10;7.80;;;7.40;75.60;;;;;;5036761;28;20138;-73
2021/03/05 09:51:23;;;;;;;17.05;7.32;;;7.30;76.30;;;;;;5036775;28;20136;-73
2021/03/05 09:53:52;;;;;;;16.10;7.35;;;7.60;75.60;;;;;;5039843;28;20049;-75
2021/03/05 09:56:21;;;;;;;13.35;7.10;;;7.40;75.90;;;;;;5038786;28;20119;-73
2021/03/05 09:59:02;;;;;;;17.55;7.88;;;7.60;75.30;;;;;;5031785;28;20049;-74
2021/03/05 10:01:30;;;;;;;16.67;7.65;;;7.80;74.40;;;;;;5062633;28;20095;-74
2021/03/05 10:04:02;;;;;;;18.23;7.88;;;7.80;74.40;;;;;;5030066;28;20091;-74
2021/03/05 10:06:30;;;;;;;16.73;7.18;;;7.90;73.60;;;;;;5027034;28;20048;-74
2021/03/05 10:08:59;;;;;;;17.38;7.20;;;7.90;73.40;;;;;;5027325;28;20085;-80
2021/03/05 10:11:32;;;;;;;15.73;7.25;;;7.90;73.80;;;;;;5022687;28;20163;-75
2021/03/05 10:13:59;;;;;;;17.60;7.40;;;7.90;73.00;;;;;;5023537;28;20120;-75
2021/03/05 10:16:33;;;;;;;17.75;7.78;;;7.90;73.80;;;;;;5021383;28;20054;-79
2021/03/05 10:19:07;;;;;;;17.92;7.35;;;7.90;73.70;;;;;;5053666;28;20053;-76
2021/03/05 10:21:39;;;;;;;17.17;7.07;;;8.20;71.90;;;;;;5025395;28;20080;-77
2021/03/05 10:24:14;;;;;;;18.55;7.68;;;8.20;71.90;;;;;;5022594;28;20057;-77
2021/03/05 10:27:10;;;;;;;16.63;7.18;;;7.90;73.20;;;;;;5044613;28;20119;-77
2021/03/05 10:29:36;;;;;;;15.48;7.78;;;8.10;73.30;;;;;;5020875;28;20072;-74
2021/03/05 10:32:02;;;;;;;16.65;6.72;;;8.20;71.70;;;;;;5020016;28;20049;-81
2021/03/05 10:34:31;;;;;;;14.15;7.43;;;8.10;71.60;;;;;;5019361;28;20488;-79
2021/03/05 10:37:01;;;;;;;14.48;7.32;;;7.90;72.00;;;;;;5024180;28;20045;-84
2021/03/05 10:39:30;;;;;;;12.95;6.93;;;8.00;71.50;;;;;;5021703;28;20489;-82
2021/03/05 10:41:59;;;;;;;15.10;7.00;;;7.90;71.00;;;;;;5022371;28;20072;-75
2021/03/05 10:44:29;;;;;;;12.65;7.03;;;7.90;71.60;;;;;;5025068;28;20073;-83
2021/03/05 10:47:00;;;;;;;13.13;6.38;;;8.20;70.20;;;;;;5032494;28;20052;-79
2021/03/05 10:49:28;;;;;;;14.43;7.18;;;8.20;69.70;;;;;;5036519;28;20053;-79
2021/03/05 10:51:56;;;;;;;14.50;7.15;;;8.20;70.20;;;;;;5017125;28;20152;-78
2021/03/05 10:54:24;;;;;;;15.02;6.97;;;8.20;70.50;;;;;;5018617;28;20050;-79
2021/03/05 10:56:52;;;;;;;15.20;6.80;;;8.10;70.40;;;;;;5029371;28;20060;-79
2021/03/05 10:59:19;;;;;;;16.40;6.55;;;8.20;70.20;;;;;;5044170;28;20080;-78
2021/03/05 11:01:47;;;;;;;18.33;7.82;;;8.30;70.00;;;;;;5030093;28;20054;-79
2021/03/05 11:04:14;;;;;;;14.40;7.45;;;8.10;70.00;;;;;;5035703;28;20061;-78
2021/03/05 11:06:46;;;;;;;14.57;7.07;;;8.00;69.80;;;;;;5036522;28;20103;-79
2021/03/05 11:09:14;;;;;;;16.05;6.82;;;7.80;70.00;;;;;;5034859;28;20049;-79
2021/03/05 11:11:41;;;;;;;14.02;7.28;;;7.90;70.40;;;;;;5030759;28;20183;-79
2021/03/05 11:14:07;;;;;;;16.77;7.50;;;7.90;70.10;;;;;;5030121;28;20113;-78
2021/03/05 11:16:34;;;;;;;17.33;7.03;;;8.00;70.60;;;;;;5035942;28;20044;-79
2021/03/05 11:19:01;;;;;;;16.35;7.10;;;8.10;70.10;;;;;;5033653;28;20049;-78
2021/03/05 11:21:28;;;;;;;13.27;6.38;;;8.40;69.00;;;;;;5037504;28;20049;-79
2021/03/05 11:23:55;;;;;;;13.93;7.45;;;8.40;67.70;;;;;;5031987;28;20059;-78
2021/03/05 11:26:23;;;;;;;14.00;6.88;;;8.40;68.40;;;;;;5036733;28;20057;-78
2021/03/05 11:28:51;;;;;;;12.98;6.25;;;8.60;68.20;;;;;;5037256;28;20075;-78
2021/03/05 11:31:17;;;;;;;11.27;6.35;;;8.70;67.70;;;;;;5032805;28;20053;-78
2021/03/05 11:33:44;;;;;;;12.70;6.80;;;8.90;66.90;;;;;;5036281;28;20451;-79
2021/03/05 11:36:12;;;;;;;12.48;6.57;;;8.80;66.50;;;;;;5034788;28;20053;-79
2021/03/05 11:38:44;;;;;;;11.13;5.85;;;8.70;66.30;;;;;;5012622;28;20053;-80
2021/03/05 11:41:10;;;;;;;13.90;6.05;;;8.70;64.50;;;;;;5032826;28;20512;-78
2021/03/05 11:43:42;;;;;;;12.65;6.57;;;8.90;63.70;;;;;;5032818;28;20146;-78
2021/03/05 11:46:08;;;;;;;13.85;6.65;;;9.00;64.20;;;;;;5032360;28;20607;-78
2021/03/05 11:48:34;;;;;;;11.30;6.18;;;9.20;63.70;;;;;;5036684;28;20076;-75
2021/03/05 11:51:01;;;;;;;10.93;6.43;;;9.00;62.60;;;;;;5033306;28;21420;-75
2021/03/05 11:53:28;;;;;;;12.13;6.78;;;9.10;62.90;;;;;;5035754;28;20465;-77
2021/03/05 11:55:54;;;;;;;10.30;4.95;;;9.00;63.00;;;;;;5034396;28;20128;-76
2021/03/05 11:58:20;;;;;;;11.98;5.80;;;8.80;62.80;;;;;;5034118;28;20156;-77
2021/03/05 12:00:48;;;;;;;15.13;7.03;;;8.90;61.90;;;;;;5031782;28;20045;-73
2021/03/05 12:03:16;;;;;;;10.57;4.95;;;8.80;61.70;;;;;;5035426;28;20476;-74
2021/03/05 12:05:42;;;;;;;8.75;4.78;;;8.80;61.50;;;;;;5028490;28;20057;-74
2021/03/05 12:08:08;;;;;;;10.15;4.90;;;8.70;61.50;;;;;;5033114;28;20106;-74
2021/03/05 12:10:35;;;;;;;8.35;4.40;;;8.70;62.10;;;;;;5031335;28;20107;-74
2021/03/05 12:13:02;;;;;;;8.07;4.55;;;8.90;60.90;;;;;;5034168;28;20687;-74
2021/03/05 12:15:29;;;;;;;12.10;5.28;;;8.80;60.60;;;;;;5031180;28;20049;-73
2021/03/05 12:17:56;;;;;;;9.25;4.82;;;8.70;60.60;;;;;;5031641;28;20405;-73
2021/03/05 12:20:23;;;;;;;10.90;5.15;;;8.90;60.80;;;;;;5036549;28;20063;-74
2021/03/05 12:22:50;;;;;;;10.40;5.22;;;8.80;60.70;;;;;;5035282;28;20087;-73
2021/03/05 12:25:16;;;;;;;9.88;4.78;;;9.00;60.50;;;;;;5035664;28;20412;-72
2021/03/05 12:27:43;;;;;;;9.68;5.28;;;9.20;59.90;;;;;;5033310;28;20089;-72
2021/03/05 12:30:10;;;;;;;7.97;4.55;;;9.30;59.30;;;;;;5034843;28;20077;-73
2021/03/05 12:32:36;;;;;;;8.75;4.97;;;9.30;59.30;;;;;;5029053;28;20176;-72
2021/03/05 12:35:04;;;;;;;9.90;5.63;;;9.40;59.10;;;;;;5064895;28;20482;-73
2021/03/05 12:37:32;;;;;;;9.05;5.07;;;9.30;59.50;;;;;;5033669;28;20060;-73
2021/03/05 12:39:58;;;;;;;17.65;5.07;;;9.40;59.40;;;;;;5033113;28;20510;-73
2021/03/05 12:42:25;;;;;;;9.48;4.82;;;9.40;58.60;;;;;;5034514;28;21317;-76
2021/03/05 12:45:05;;;;;;;11.10;5.50;;;9.30;58.90;;;;;;5036347;28;20131;-74
2021/03/05 12:47:33;;;;;;;7.78;4.75;;;9.30;58.80;;;;;;5030619;28;20515;-74
2021/03/05 12:50:01;;;;;;;12.00;5.35;;;9.20;59.00;;;;;;5034272;28;20053;-73
2021/03/05 12:52:29;;;;;;;11.98;5.20;;;9.20;58.70;;;;;;5034315;28;20099;-74
2021/03/05 12:54:56;;;;;;;11.20;5.22;;;9.10;59.00;;;;;;5030758;28;20888;-74
2021/03/05 12:57:22;;;;;;;10.43;4.57;;;9.30;58.50;;;;;;5033365;28;20062;-73
2021/03/05 12:59:49;;;;;;;8.90;5.35;;;9.30;58.20;;;;;;5033810;28;20156;-73